To NAV CANADA Home Page Login to a new session Search on AWWS site Feedback and Comments Disclaimer Vers la page française équivalente Tips FAQ What's new on the site To the Forecasts and Observations / NOTAM section To "File a Flight Plan" website Publications and other links Update of the User's profile FIC Telephone Numbers My Weather Data Folder Route Weather Data Regional Weather Data Local Weather Data To the Forecasts and Observations / NOTAM section
Request Generated 07/25/2017 at 22:31:24 UTC . Weather information available at that time is displayed.


Go to a specific product

Save this request - Inactive

METAR/TAF

If you find any discrepancies between the coded METAR/TAF and the plain language METAR/TAF please use the coded METAR/TAF. LWIS bulletins are not decoded in plain language.

OTTAWA/GATINEAU/QC    

METAR CYND 252200Z 10003KT 15SM FEW050 FEW240 23/12 A3017 RMK CU1CI1 SLP220 DENSITY ALT 900FT=
METAR
LOCATION
CYND - OTTAWA/GATINEAU/QC
DATE - TIME
25 JULY 2017 - 2200 UTC
WIND
100 TRUE @ 3  KNOTS
VISIBILITY
15 STAT.  MILES
RUNWAY VISUAL RANGE
WEATHER
CLOUDINESS
FEW CLOUDS (1/8 - 2/8) 5000  FT
FEW CLOUDS (1/8 - 2/8) 24000  FT
TEMP / DEWPOINT
23 C / 12 C
ALTIMETER
30.17 IN HG
RECENT WEATHER
WIND SHEAR

METAR CYND 252100Z 07005KT 050V160 15SM FEW050 FEW240 23/13 A3017 RMK CU2CI1 CI TR SLP220 DENSITY ALT 1000FT=
METAR
LOCATION
CYND - OTTAWA/GATINEAU/QC
DATE - TIME
25 JULY 2017 - 2100 UTC
WIND
70 TRUE @ 5  KNOTS
VARIATION
50 <-> 160  DEG
VISIBILITY
15 STAT.  MILES
RUNWAY VISUAL RANGE
WEATHER
CLOUDINESS
FEW CLOUDS (1/8 - 2/8) 5000  FT
FEW CLOUDS (1/8 - 2/8) 24000  FT
TEMP / DEWPOINT
23 C / 13 C
ALTIMETER
30.17 IN HG
RECENT WEATHER
WIND SHEAR

METAR CYND 252000Z 06005KT 040V130 15SM SCT050 SCT072 23/13 A3018 RMK CU3AC1 SLP221 DENSITY ALT 1000FT=
METAR
LOCATION
CYND - OTTAWA/GATINEAU/QC
DATE - TIME
25 JULY 2017 - 2000 UTC
WIND
60 TRUE @ 5  KNOTS
VARIATION
40 <-> 130  DEG
VISIBILITY
15 STAT.  MILES
RUNWAY VISUAL RANGE
WEATHER
CLOUDINESS
SCATTERED CLOUDS (3/8 - 4/8) 5000  FT
SCATTERED CLOUDS (3/8 - 4/8) 7200  FT
TEMP / DEWPOINT
23 C / 13 C
ALTIMETER
30.18 IN HG
RECENT WEATHER
WIND SHEAR

TAF CYND 251744Z 2518/2601 09008KT P6SM BKN030 FM252100 18005KT P6SM FEW040 RMK NXT FCST WILL BE ISSUED AT 261245Z=
TAF
LOCATION

CYND - OTTAWA/GATINEAU/QC
VALIDITY [UTC]
25 JUL - 1744 to
26 JUL - 0100
 
TIMES
[UTC]
WIND
[DEGREES TRUE]
VISIBILITY
[STAT. MILES]
WEATHER
CLOUDINESS
[FEET AGL]
 
25 JUL - 1800 to
25 JUL - 2100
90 @ 8 KNOTS
6+
NIL
3000 BROKEN
 
25 JUL - 2100 to
26 JUL - 0100
180 @ 5 KNOTS
6+
NIL
4000 FEW
REMARKS
THE NEXT FORECAST WILL BE ISSUED AT 1245 UTC ON DAY 26


OTTAWA/MACDONALD-CARTIER INTL/ON    

METAR CYOW 252200Z 08004KT 060V130 15SM FEW050 FEW180 22/13 A3018 RMK CU1AC2 CU TR SLP223 DENSITY ALT 1000FT=
METAR
LOCATION
CYOW - OTTAWA/MACDONALD-CARTIER INTL/ON
DATE - TIME
25 JULY 2017 - 2200 UTC
WIND
80 TRUE @ 4  KNOTS
VARIATION
60 <-> 130  DEG
VISIBILITY
15 STAT.  MILES
RUNWAY VISUAL RANGE
WEATHER
CLOUDINESS
FEW CLOUDS (1/8 - 2/8) 5000  FT
FEW CLOUDS (1/8 - 2/8) 18000  FT
TEMP / DEWPOINT
22 C / 13 C
ALTIMETER
30.18 IN HG
RECENT WEATHER
WIND SHEAR

METAR CYOW 252100Z 08004KT 050V120 15SM FEW050 23/13 A3019 RMK CU2 SLP224 DENSITY ALT 1100FT=
METAR
LOCATION
CYOW - OTTAWA/MACDONALD-CARTIER INTL/ON
DATE - TIME
25 JULY 2017 - 2100 UTC
WIND
80 TRUE @ 4  KNOTS
VARIATION
50 <-> 120  DEG
VISIBILITY
15 STAT.  MILES
RUNWAY VISUAL RANGE
WEATHER
CLOUDINESS
FEW CLOUDS (1/8 - 2/8) 5000  FT
TEMP / DEWPOINT
23 C / 13 C
ALTIMETER
30.19 IN HG
RECENT WEATHER
WIND SHEAR

METAR CYOW 252000Z 06010G15KT 15SM SCT045 23/13 A3019 RMK CU3 SLP224 DENSITY ALT 1100FT=
METAR
LOCATION
CYOW - OTTAWA/MACDONALD-CARTIER INTL/ON
DATE - TIME
25 JULY 2017 - 2000 UTC
WIND
60 TRUE @ 10  KNOTS
GUSTS
15 KNOTS
VISIBILITY
15 STAT.  MILES
RUNWAY VISUAL RANGE
WEATHER
CLOUDINESS
SCATTERED CLOUDS (3/8 - 4/8) 4500  FT
TEMP / DEWPOINT
23 C / 13 C
ALTIMETER
30.19 IN HG
RECENT WEATHER
WIND SHEAR

TAF CYOW 252039Z 2521/2618 05012KT P6SM FEW040 BECMG 2600/2602 VRB03KT FM260700 VRB03KT P6SM SKC TEMPO 2607/2611 2SM BR FM261100 VRB03KT P6SM FEW015 FM261300 20007KT P6SM BKN015 FM261600 20012KT P6SM BKN025 RMK NXT FCST BY 260000Z=
TAF

25 JUL 2017 - 2039 UTC
LOCATION

CYOW - OTTAWA/MACDONALD-CARTIER INTL/ON
VALIDITY [UTC]
25 JUL - 2039 to
26 JUL - 1800
 
TIMES
[UTC]
WIND
[DEGREES TRUE]
VISIBILITY
[STAT. MILES]
WEATHER
CLOUDINESS
[FEET AGL]
 
25 JUL - 2100 to
26 JUL - 0700
50 @ 12 KNOTS
6+
NIL
4000 FEW
BECOMING
26 JUL - 0000 to
26 JUL - 0200
VARIABLE @ 3 KNOTS
 
 
 
 
26 JUL - 0700 to
26 JUL - 1100
VARIABLE @ 3 KNOTS
6+
NIL
CLEAR SKY
TEMPORARY CHANGES
26 JUL - 0700 to
26 JUL - 1100
 
2
MIST
 
 
26 JUL - 1100 to
26 JUL - 1300
VARIABLE @ 3 KNOTS
6+
NIL
1500 FEW
 
26 JUL - 1300 to
26 JUL - 1600
200 @ 7 KNOTS
6+
NIL
1500 BROKEN
 
26 JUL - 1600 to
26 JUL - 1800
200 @ 12 KNOTS
6+
NIL
2500 BROKEN
REMARKS
THE NEXT FORECAST WILL BE ISSUED BY 0000 UTC ON DAY 26




GRAPHICAL FA CLOUDS & WEATHER FORECASTS
To the Product Selector
Graphical FA gfacn33      

GRAPHICAL FA ICING, TURBULENCE & FREEZING LEVEL FORECASTS
To the Product Selector
Graphical FA gfacn33      

FDTEXT Low Level FD. Temperatures are not forecast for the 3,000-foot level.
To the Product Selector
STN YOW - OTTAWA. ONT for use 3000 6000 9000 12000 18000
FDCN01 CWAO FCST BASED ON 251200 DATA VALID 251800 17-21 0716 0826+06 0526+05 0326+01 3623-10
FDCN02 CWAO FCST BASED ON 251200 DATA VALID 260000 21-06 0606 0817+08 0715+06 0110+02 3420-08
FDCN03 CWAO FCST BASED ON 251200 DATA VALID 261200 06-17 2210 1811+11 2306+07 2807+03 3113-06



Your time UTC time
Weather data provided by Environment Canada and NAV CANADA